Suffield, Canada
Current Conditions -  °F | °C
As of 3:00 AM on Tuesday 27 Jan 2015 (Local Time) from CYXH Reporting Station
Clear Clear  
Wind Chill: 33°   Ceiling: Unl
Heat Index: 39°   Visibility: 9mi
Dew Point: 32°   Wind: 9mph
Humidity: 75%   Direction: 230°SW
Pressure: 29.77"   Gusts: NA
Location:  50.21°N, 111.18°W
Report Text: CYXH 271000Z AUTO 23008KT 9SM CLR 04/00 A2977 RMK SLP095
Loading
Personal Weather Stations






























Interactive Weather Map New forecast layout! Learn more

10-Day Weather Forecast

Advertisements
Track Severe Weather on mobile